Time;durP1;ratioP1;P1;durP2;ratioP2;P2;SDS_P1;SDS_P2;PMS_P1;PMS_P2;Temp;Humidity;BMP_temperature;BMP_pressure;BME280_temperature;BME280_humidity;BME280_pressure;Samples;Min_cycle;Max_cycle;Signal;HPM_P1;HPM_P2
2023/08/20 00:00:28;;;;;;;11.75;3.40;;;24.70;99.90;;;;;;5091408;28;20083;-59
2023/08/20 00:03:02;;;;;;;9.38;3.38;;;24.70;99.90;;;;;;5091094;28;20058;-59
2023/08/20 00:05:29;;;;;;;10.77;3.08;;;24.70;99.90;;;;;;5091376;28;20496;-59
2023/08/20 00:07:55;;;;;;;8.85;3.08;;;24.60;99.90;;;;;;5091474;28;20054;-59
2023/08/20 00:10:20;;;;;;;10.20;2.88;;;24.60;99.90;;;;;;5091155;28;20123;-58
2023/08/20 00:12:46;;;;;;;10.57;3.72;;;24.60;99.90;;;;;;5091305;28;20440;-58
2023/08/20 00:15:12;;;;;;;11.82;3.17;;;24.60;99.90;;;;;;5091180;28;20400;-59
2023/08/20 00:17:40;;;;;;;8.80;2.95;;;24.40;99.90;;;;;;5090894;28;20028;-59
2023/08/20 00:20:12;;;;;;;10.98;3.03;;;24.50;99.90;;;;;;5091492;28;20052;-59
2023/08/20 00:22:39;;;;;;;12.13;3.20;;;24.30;99.90;;;;;;5091203;28;20036;-59
2023/08/20 00:25:05;;;;;;;11.18;3.67;;;24.00;99.90;;;;;;5091164;28;20439;-59
2023/08/20 00:27:32;;;;;;;8.30;3.03;;;23.90;99.90;;;;;;5091340;28;20055;-59
2023/08/20 00:29:58;;;;;;;10.32;3.13;;;23.80;99.90;;;;;;5091045;28;20028;-59
2023/08/20 00:32:23;;;;;;;6.75;2.78;;;23.70;99.90;;;;;;5090765;28;20454;-59
2023/08/20 00:34:49;;;;;;;10.15;3.60;;;23.60;99.90;;;;;;5091239;28;20055;-59
2023/08/20 00:37:15;;;;;;;11.63;3.90;;;23.50;99.90;;;;;;5091175;28;20032;-59
2023/08/20 00:39:41;;;;;;;8.68;3.17;;;23.50;99.90;;;;;;5090999;28;20104;-59
2023/08/20 00:42:07;;;;;;;11.07;3.72;;;23.50;99.90;;;;;;5090968;28;20400;-59
2023/08/20 00:44:34;;;;;;;9.60;3.20;;;23.50;99.90;;;;;;5091027;28;20027;-59
2023/08/20 00:47:04;;;;;;;10.00;3.35;;;23.50;99.90;;;;;;5092173;28;20063;-59
2023/08/20 00:49:31;;;;;;;9.13;3.22;;;23.40;99.90;;;;;;5094964;28;20435;-59
2023/08/20 00:51:58;;;;;;;10.32;3.63;;;23.30;99.90;;;;;;5095441;28;20044;-59
2023/08/20 00:54:25;;;;;;;13.45;3.40;;;23.30;99.90;;;;;;5094911;28;20016;-58
2023/08/20 00:56:51;;;;;;;11.65;3.55;;;23.30;99.90;;;;;;5077098;28;20047;-58
2023/08/20 00:59:17;;;;;;;11.35;3.20;;;23.30;99.90;;;;;;5094652;28;20511;-58
2023/08/20 01:01:43;;;;;;;8.90;3.10;;;23.30;99.90;;;;;;5094548;28;20408;-59
2023/08/20 01:04:09;;;;;;;12.02;3.25;;;23.60;99.90;;;;;;5076438;28;20035;-59
2023/08/20 01:07:13;;;;;;;9.60;3.22;;;23.80;99.90;;;;;;5094711;28;20085;-59
2023/08/20 01:10:08;;;;;;;9.80;3.45;;;24.00;99.90;;;;;;5093939;28;20044;-59
2023/08/20 01:12:35;;;;;;;10.02;3.28;;;24.00;99.90;;;;;;5090498;28;20282;-59
2023/08/20 01:15:01;;;;;;;9.65;4.10;;;23.90;99.90;;;;;;5094463;28;20093;-59
2023/08/20 01:17:27;;;;;;;11.02;3.55;;;24.00;99.90;;;;;;5094414;28;20515;-59
2023/08/20 01:19:53;;;;;;;9.95;3.45;;;24.10;99.90;;;;;;5094467;28;20051;-59
2023/08/20 01:22:43;;;;;;;10.95;3.53;;;24.00;99.90;;;;;;5094833;28;20598;-59
2023/08/20 01:25:36;;;;;;;8.45;3.00;;;24.00;99.90;;;;;;5094755;28;20032;-59
2023/08/20 01:28:25;;;;;;;11.82;3.58;;;24.00;99.90;;;;;;5094239;28;20075;-59
2023/08/20 01:30:52;;;;;;;10.75;3.35;;;24.00;99.90;;;;;;5093668;28;20036;-59
2023/08/20 01:33:19;;;;;;;10.13;3.20;;;24.00;99.90;;;;;;5094218;28;20101;-59
2023/08/20 01:35:45;;;;;;;12.10;4.25;;;23.80;99.90;;;;;;5094206;28;20115;-59
2023/08/20 01:38:10;;;;;;;10.80;3.33;;;23.80;99.90;;;;;;5075911;28;20410;-61
2023/08/20 01:40:36;;;;;;;12.10;3.45;;;23.60;99.90;;;;;;5094042;28;20051;-61
2023/08/20 01:43:02;;;;;;;10.88;3.25;;;23.50;99.90;;;;;;5093932;28;20151;-61
2023/08/20 01:45:28;;;;;;;12.77;3.72;;;23.30;99.90;;;;;;5093948;28;20039;-60
2023/08/20 01:47:53;;;;;;;11.93;3.50;;;23.10;99.90;;;;;;5093997;28;20111;-61
2023/08/20 01:50:19;;;;;;;10.15;3.10;;;23.10;99.90;;;;;;5093693;28;20028;-60
2023/08/20 01:52:45;;;;;;;11.73;3.08;;;22.90;99.90;;;;;;5093776;28;20040;-61
2023/08/20 01:55:11;;;;;;;12.55;3.40;;;22.90;99.90;;;;;;5093716;28;20024;-61
2023/08/20 01:57:37;;;;;;;10.73;3.10;;;22.80;99.90;;;;;;5093560;28;20515;-61
2023/08/20 02:00:05;;;;;;;9.40;2.92;;;22.80;99.90;;;;;;5093765;28;20032;-61
2023/08/20 02:02:31;;;;;;;10.50;3.20;;;22.80;99.90;;;;;;5075437;28;20020;-60
2023/08/20 02:04:57;;;;;;;8.93;2.80;;;22.60;99.90;;;;;;5093611;28;20032;-61
2023/08/20 02:07:23;;;;;;;10.73;2.85;;;22.60;99.90;;;;;;5093500;28;20020;-61
2023/08/20 02:09:48;;;;;;;12.38;3.13;;;22.60;99.90;;;;;;5093794;28;20016;-61
2023/08/20 02:12:14;;;;;;;10.07;2.88;;;22.60;99.90;;;;;;5093126;28;20036;-61
2023/08/20 02:14:40;;;;;;;8.88;2.85;;;22.60;99.90;;;;;;5093243;28;20103;-61
2023/08/20 02:17:06;;;;;;;10.45;3.00;;;22.60;99.90;;;;;;5093432;28;20051;-61
2023/08/20 02:19:32;;;;;;;9.52;3.03;;;22.60;99.90;;;;;;5093899;28;20439;-61
2023/08/20 02:21:58;;;;;;;11.98;3.00;;;22.60;99.90;;;;;;5093285;28;20028;-61
2023/08/20 02:24:24;;;;;;;11.23;3.25;;;22.90;99.90;;;;;;5093169;28;20518;-61
2023/08/20 02:26:49;;;;;;;6.50;2.33;;;23.10;99.90;;;;;;5092682;28;20534;-60
2023/08/20 02:29:15;;;;;;;7.78;2.60;;;23.30;99.90;;;;;;5093088;28;20024;-61
2023/08/20 02:31:41;;;;;;;5.88;2.30;;;23.30;99.90;;;;;;5092999;28;20046;-61
2023/08/20 02:34:06;;;;;;;8.45;2.72;;;23.40;99.90;;;;;;5093287;28;20016;-61
2023/08/20 02:36:32;;;;;;;9.20;2.60;;;23.50;99.90;;;;;;5093073;28;20136;-61
2023/08/20 02:38:58;;;;;;;9.60;2.60;;;23.50;99.90;;;;;;5092774;28;20020;-61
2023/08/20 02:41:23;;;;;;;8.02;2.70;;;23.50;99.90;;;;;;5092509;28;20032;-61
2023/08/20 02:43:49;;;;;;;8.45;2.78;;;23.50;99.90;;;;;;5093224;28;20072;-61
2023/08/20 02:46:15;;;;;;;9.50;2.70;;;23.50;99.90;;;;;;5092793;28;20036;-61
2023/08/20 02:48:40;;;;;;;8.30;2.63;;;23.40;99.90;;;;;;5092752;28;20034;-61
2023/08/20 02:51:06;;;;;;;6.85;2.20;;;23.40;99.90;;;;;;5092585;28;20042;-61
2023/08/20 02:53:32;;;;;;;9.50;3.10;;;23.40;99.90;;;;;;5092563;28;20028;-61
2023/08/20 02:55:58;;;;;;;9.23;2.90;;;23.30;99.90;;;;;;5092307;28;20052;-61
2023/08/20 02:58:24;;;;;;;7.20;2.60;;;23.30;99.90;;;;;;5092439;28;20031;-61
2023/08/20 03:00:50;;;;;;;8.02;2.40;;;23.10;99.90;;;;;;5092839;28;20063;-61
2023/08/20 03:03:16;;;;;;;6.88;2.58;;;22.80;99.90;;;;;;5092481;28;20051;-60
2023/08/20 03:05:42;;;;;;;9.25;2.53;;;22.80;99.90;;;;;;5092312;28;20036;-61
2023/08/20 03:08:07;;;;;;;7.80;2.83;;;22.60;99.90;;;;;;5092210;28;20452;-61
2023/08/20 03:10:34;;;;;;;8.27;2.72;;;22.50;99.90;;;;;;5091500;28;20105;-61
2023/08/20 03:13:01;;;;;;;9.20;2.38;;;22.40;99.90;;;;;;5092237;28;20019;-61
2023/08/20 03:15:28;;;;;;;8.65;2.58;;;22.30;99.90;;;;;;5092075;28;20032;-61
2023/08/20 03:17:53;;;;;;;7.72;2.42;;;22.20;99.90;;;;;;5092268;28;20020;-61
2023/08/20 03:20:19;;;;;;;9.27;2.80;;;22.30;99.90;;;;;;5091900;28;20403;-61
2023/08/20 03:22:45;;;;;;;8.00;2.55;;;22.30;99.90;;;;;;5092337;28;20024;-61
2023/08/20 03:25:10;;;;;;;7.72;2.38;;;22.30;99.90;;;;;;5091800;28;20032;-61
2023/08/20 03:27:36;;;;;;;8.30;2.10;;;22.20;99.90;;;;;;5091863;28;20094;-61
2023/08/20 03:30:03;;;;;;;7.15;2.20;;;22.20;99.90;;;;;;5092341;28;20028;-61
2023/08/20 03:32:29;;;;;;;9.23;2.50;;;22.20;99.90;;;;;;5091854;28;20173;-61
2023/08/20 03:34:55;;;;;;;9.60;2.40;;;22.20;99.90;;;;;;5091958;28;20110;-61
2023/08/20 03:37:22;;;;;;;11.07;2.80;;;22.20;99.90;;;;;;5091643;28;20056;-61
2023/08/20 03:39:48;;;;;;;9.35;2.65;;;22.20;99.90;;;;;;5091823;28;20028;-61
2023/08/20 03:42:14;;;;;;;8.07;2.28;;;22.30;99.90;;;;;;5091809;28;20507;-61
2023/08/20 03:44:39;;;;;;;7.03;2.25;;;22.60;99.90;;;;;;5091679;28;20021;-61
2023/08/20 03:47:05;;;;;;;5.65;2.10;;;22.80;99.90;;;;;;5091547;28;20441;-61
2023/08/20 03:49:31;;;;;;;6.72;2.17;;;22.90;99.90;;;;;;5091561;28;20035;-60
2023/08/20 03:51:56;;;;;;;8.35;2.40;;;22.90;99.90;;;;;;5091914;28;20488;-61
2023/08/20 03:54:22;;;;;;;10.68;2.65;;;23.10;99.90;;;;;;5091166;28;20493;-59
2023/08/20 03:56:48;;;;;;;8.55;2.30;;;23.10;99.90;;;;;;5091383;28;20036;-59
2023/08/20 03:59:13;;;;;;;9.40;2.75;;;23.10;99.90;;;;;;5091628;28;20020;-59
2023/08/20 04:01:39;;;;;;;8.68;2.40;;;23.20;99.90;;;;;;5091402;28;20067;-59
2023/08/20 04:04:05;;;;;;;5.65;2.03;;;23.20;99.90;;;;;;5091462;28;20508;-58
2023/08/20 04:06:31;;;;;;;7.75;1.95;;;23.10;99.90;;;;;;5091398;28;20028;-59
2023/08/20 04:08:56;;;;;;;5.40;1.90;;;23.10;99.90;;;;;;5091351;28;20459;-59
2023/08/20 04:11:22;;;;;;;5.65;2.20;;;23.10;99.90;;;;;;5091347;28;20043;-60
2023/08/20 04:13:47;;;;;;;6.55;2.03;;;23.00;99.90;;;;;;5091276;28;20051;-59
2023/08/20 04:16:13;;;;;;;7.40;2.20;;;23.00;99.90;;;;;;5091445;28;20020;-59
2023/08/20 04:18:39;;;;;;;10.48;2.70;;;22.90;99.90;;;;;;5091696;28;20036;-59
2023/08/20 04:21:05;;;;;;;5.95;1.95;;;22.70;99.90;;;;;;5090972;28;20480;-58
2023/08/20 04:23:31;;;;;;;8.93;2.10;;;22.50;99.90;;;;;;5095417;28;20104;-59
2023/08/20 04:25:57;;;;;;;7.70;2.25;;;22.40;99.90;;;;;;5095380;28;20532;-59
2023/08/20 04:28:22;;;;;;;6.80;2.15;;;22.30;99.90;;;;;;5095406;28;20039;-59
2023/08/20 04:30:49;;;;;;;8.70;2.38;;;22.30;99.90;;;;;;5095650;28;20496;-59
2023/08/20 04:33:15;;;;;;;7.88;2.20;;;22.20;99.90;;;;;;5095418;28;20031;-59
2023/08/20 04:35:40;;;;;;;8.63;2.25;;;22.20;99.90;;;;;;5095166;28;20111;-59
2023/08/20 04:38:07;;;;;;;10.50;2.75;;;22.10;99.90;;;;;;5095268;28;20154;-58
2023/08/20 04:40:33;;;;;;;8.52;2.40;;;22.10;99.90;;;;;;5095511;28;20049;-59
2023/08/20 04:42:59;;;;;;;8.02;2.38;;;22.10;99.90;;;;;;5095172;28;20105;-59
2023/08/20 04:45:24;;;;;;;9.43;3.05;;;22.00;99.90;;;;;;5095197;28;20400;-59
2023/08/20 04:47:50;;;;;;;7.70;2.10;;;22.00;99.90;;;;;;5095099;28;20511;-59
2023/08/20 04:50:15;;;;;;;8.88;2.45;;;22.00;99.90;;;;;;5094977;28;20028;-59
2023/08/20 04:52:41;;;;;;;7.75;2.40;;;22.00;99.90;;;;;;5094723;28;20035;-59
2023/08/20 04:55:08;;;;;;;8.57;2.83;;;21.90;99.90;;;;;;5094967;28;20031;-58
2023/08/20 04:57:34;;;;;;;7.32;2.15;;;21.90;99.90;;;;;;5094869;28;20138;-59
2023/08/20 05:00:00;;;;;;;6.35;2.15;;;22.00;99.90;;;;;;5094954;28;20031;-58
2023/08/20 05:02:25;;;;;;;7.80;2.08;;;22.20;99.90;;;;;;5094912;28;20119;-58
2023/08/20 05:04:51;;;;;;;7.55;2.55;;;22.40;99.90;;;;;;5094667;28;20081;-59
2023/08/20 05:07:17;;;;;;;7.25;2.10;;;22.50;99.90;;;;;;5094672;28;20522;-59
2023/08/20 05:09:43;;;;;;;6.53;2.05;;;22.80;99.90;;;;;;5076578;28;20028;-59
2023/08/20 05:12:08;;;;;;;7.10;2.38;;;22.80;99.90;;;;;;5094533;28;20097;-58
2023/08/20 05:14:34;;;;;;;5.70;2.13;;;22.80;99.90;;;;;;5094456;28;20028;-58
2023/08/20 05:17:00;;;;;;;7.53;2.20;;;22.80;99.90;;;;;;5094486;28;20081;-59
2023/08/20 05:19:26;;;;;;;7.97;2.55;;;22.90;99.90;;;;;;5094505;28;20027;-58
2023/08/20 05:21:55;;;;;;;8.23;2.10;;;22.80;99.90;;;;;;5094195;28;20181;-61
2023/08/20 05:24:21;;;;;;;7.30;2.50;;;22.80;99.90;;;;;;5094300;28;20123;-61
2023/08/20 05:26:49;;;;;;;7.35;2.45;;;22.90;99.90;;;;;;5094557;28;20082;-61
2023/08/20 05:29:15;;;;;;;6.75;2.15;;;22.90;99.90;;;;;;5094305;28;20070;-60
2023/08/20 05:31:40;;;;;;;7.47;2.40;;;22.80;99.90;;;;;;5094143;28;20408;-60
2023/08/20 05:34:06;;;;;;;10.85;2.28;;;22.80;99.90;;;;;;5093697;28;20530;-61
2023/08/20 05:36:32;;;;;;;5.13;1.85;;;22.80;99.90;;;;;;5076118;28;20032;-61
2023/08/20 05:38:57;;;;;;;10.68;2.55;;;22.60;99.90;;;;;;5094153;28;20099;-61
2023/08/20 05:41:23;;;;;;;6.40;2.00;;;22.40;99.90;;;;;;5094096;28;20107;-61
2023/08/20 05:43:49;;;;;;;5.93;2.00;;;22.20;99.90;;;;;;5094402;28;20020;-61
2023/08/20 05:46:14;;;;;;;7.47;2.33;;;22.10;99.90;;;;;;5093899;28;20032;-61
2023/08/20 05:48:40;;;;;;;8.85;2.22;;;22.10;99.90;;;;;;5093698;28;20021;-61
2023/08/20 05:51:05;;;;;;;6.75;2.33;;;22.00;99.90;;;;;;5093458;28;20046;-61
2023/08/20 05:53:31;;;;;;;7.03;2.10;;;22.00;99.90;;;;;;5093807;28;20020;-61
2023/08/20 05:55:57;;;;;;;7.43;2.42;;;22.00;99.90;;;;;;5094291;28;20381;-61
2023/08/20 05:58:22;;;;;;;7.60;2.58;;;21.90;99.90;;;;;;5093679;28;20028;-61
2023/08/20 06:00:48;;;;;;;7.38;2.17;;;22.00;99.90;;;;;;5093660;28;20436;-61
2023/08/20 06:03:14;;;;;;;8.52;2.50;;;21.90;99.90;;;;;;5093639;28;20396;-61
2023/08/20 06:05:39;;;;;;;9.30;2.30;;;21.90;99.90;;;;;;5093219;28;20051;-61
2023/08/20 06:08:06;;;;;;;10.35;2.20;;;21.90;99.90;;;;;;5093543;28;20058;-61
2023/08/20 06:10:31;;;;;;;6.88;2.10;;;21.90;99.90;;;;;;5093850;28;20052;-61
2023/08/20 06:12:57;;;;;;;7.75;2.10;;;21.90;99.90;;;;;;5093447;28;20451;-61
2023/08/20 06:15:23;;;;;;;7.25;2.22;;;21.90;99.90;;;;;;5093306;28;20028;-61
2023/08/20 06:17:48;;;;;;;7.20;2.00;;;21.90;99.90;;;;;;5093433;28;20451;-61
2023/08/20 06:20:14;;;;;;;8.95;2.25;;;22.10;99.90;;;;;;5092827;28;20024;-60
2023/08/20 06:22:40;;;;;;;7.60;2.25;;;22.30;99.90;;;;;;5093561;28;20073;-61
2023/08/20 06:25:06;;;;;;;7.57;2.20;;;22.60;99.90;;;;;;5093407;28;20088;-61
2023/08/20 06:27:32;;;;;;;6.57;2.13;;;22.80;99.90;;;;;;5092964;28;20097;-61
2023/08/20 06:29:57;;;;;;;6.75;2.10;;;22.90;99.90;;;;;;5093100;28;20024;-60
2023/08/20 06:32:24;;;;;;;6.18;2.00;;;22.90;99.90;;;;;;5092979;28;20032;-61
2023/08/20 06:34:49;;;;;;;6.97;2.00;;;23.00;99.90;;;;;;5093092;28;20404;-61
2023/08/20 06:37:15;;;;;;;7.07;2.03;;;23.00;99.90;;;;;;5092548;28;20031;-61
2023/08/20 06:39:41;;;;;;;5.05;2.30;;;23.10;99.90;;;;;;5093323;28;20473;-60
2023/08/20 06:42:06;;;;;;;7.45;2.03;;;23.10;99.90;;;;;;5092870;28;20472;-61
2023/08/20 06:44:32;;;;;;;8.35;2.22;;;23.20;99.90;;;;;;5092009;28;20059;-60
2023/08/20 06:46:58;;;;;;;7.43;2.15;;;23.20;99.90;;;;;;5074861;28;20392;-61
2023/08/20 06:49:23;;;;;;;7.00;2.33;;;23.30;99.90;;;;;;5092371;28;20028;-61
2023/08/20 06:51:49;;;;;;;9.02;2.30;;;23.20;99.90;;;;;;5092966;28;20126;-60
2023/08/20 06:54:16;;;;;;;9.70;2.28;;;23.30;99.90;;;;;;5092680;28;20035;-61
2023/08/20 06:56:41;;;;;;;8.13;2.00;;;23.30;99.90;;;;;;5092602;28;20544;-61
2023/08/20 06:59:07;;;;;;;7.22;2.10;;;23.00;99.90;;;;;;5092516;28;20139;-61
2023/08/20 07:01:33;;;;;;;9.40;2.53;;;22.90;99.90;;;;;;5092405;28;20145;-61
2023/08/20 07:03:59;;;;;;;6.95;2.13;;;22.80;99.90;;;;;;5092291;28;20023;-61
2023/08/20 07:06:25;;;;;;;6.03;2.42;;;22.80;99.90;;;;;;5092604;28;20028;-61
2023/08/20 07:08:50;;;;;;;7.28;2.15;;;22.70;99.90;;;;;;5092504;28;20016;-60
2023/08/20 07:11:16;;;;;;;6.25;1.90;;;22.70;99.90;;;;;;5092476;28;20500;-60
2023/08/20 07:13:42;;;;;;;5.45;2.00;;;22.80;99.90;;;;;;5092419;28;20024;-60
2023/08/20 07:16:07;;;;;;;7.22;2.22;;;22.80;99.90;;;;;;5091917;28;20173;-60
2023/08/20 07:18:33;;;;;;;6.75;1.90;;;22.80;99.90;;;;;;5092271;28;20020;-60
2023/08/20 07:20:59;;;;;;;4.78;1.77;;;22.80;99.90;;;;;;5091985;28;20036;-60
2023/08/20 07:23:25;;;;;;;6.25;2.10;;;22.90;99.90;;;;;;5092148;28;20069;-60
2023/08/20 07:25:52;;;;;;;6.10;2.05;;;22.90;99.90;;;;;;5091872;28;20068;-60
2023/08/20 07:28:56;;;;;;;4.57;1.67;;;23.00;99.90;;;;;;5091842;28;20531;-60
2023/08/20 07:31:06;;;;;;;5.70;2.00;;;23.00;99.90;;;;;;5091950;28;20089;-61
2023/08/20 07:33:33;;;;;;;6.35;2.00;;;23.00;99.90;;;;;;5091900;28;20043;-60
2023/08/20 07:35:59;;;;;;;6.47;2.08;;;23.10;99.90;;;;;;5091948;28;20028;-60
2023/08/20 07:38:24;;;;;;;6.38;2.20;;;23.30;99.90;;;;;;5091726;28;20099;-60
2023/08/20 07:40:50;;;;;;;5.63;2.00;;;23.50;99.90;;;;;;5091754;28;20031;-60
2023/08/20 07:43:16;;;;;;;4.68;2.20;;;23.70;99.90;;;;;;5091846;28;20032;-60
2023/08/20 07:45:41;;;;;;;6.28;2.10;;;23.90;99.90;;;;;;5091623;28;20524;-60
2023/08/20 07:48:07;;;;;;;5.38;1.88;;;24.10;99.90;;;;;;5091663;28;20035;-60
2023/08/20 07:50:33;;;;;;;5.13;2.13;;;24.10;99.90;;;;;;5091962;28;20030;-60
2023/08/20 07:52:58;;;;;;;5.10;2.05;;;24.20;99.90;;;;;;5091599;28;20062;-60
2023/08/20 07:55:24;;;;;;;7.07;2.58;;;24.40;99.90;;;;;;5091456;28;20020;-60
2023/08/20 07:57:51;;;;;;;4.55;2.00;;;24.40;99.90;;;;;;5091385;28;20042;-60
2023/08/20 08:00:17;;;;;;;5.22;1.90;;;24.50;99.90;;;;;;5091496;28;20036;-60
2023/08/20 08:02:42;;;;;;;5.15;2.20;;;24.50;99.90;;;;;;5091511;28;20024;-61
2023/08/20 08:05:08;;;;;;;7.35;2.22;;;24.50;99.90;;;;;;5091451;28;20028;-61
2023/08/20 08:07:34;;;;;;;6.25;2.20;;;24.60;99.90;;;;;;5091433;28;20032;-61
2023/08/20 08:09:59;;;;;;;7.05;2.28;;;24.60;99.90;;;;;;5091326;28;20077;-60
2023/08/20 08:12:25;;;;;;;5.40;2.30;;;24.70;99.90;;;;;;5091328;28;20036;-60
2023/08/20 08:14:51;;;;;;;7.28;2.45;;;24.60;99.90;;;;;;5072897;28;20024;-60
2023/08/20 08:17:16;;;;;;;5.32;2.17;;;24.50;99.90;;;;;;5091329;28;20117;-60
2023/08/20 08:19:42;;;;;;;5.93;2.03;;;24.40;99.90;;;;;;5091671;28;20061;-61
2023/08/20 08:22:08;;;;;;;4.75;2.20;;;24.30;99.90;;;;;;5091008;28;20498;-61
2023/08/20 08:24:33;;;;;;;6.03;2.22;;;24.30;99.90;;;;;;5091485;28;20520;-60
2023/08/20 08:26:59;;;;;;;6.22;2.00;;;24.30;99.90;;;;;;5091315;28;20519;-60
2023/08/20 08:29:25;;;;;;;5.90;2.20;;;24.40;99.90;;;;;;5090889;28;20111;-61
2023/08/20 08:31:50;;;;;;;4.18;1.90;;;24.40;99.90;;;;;;5091427;28;20451;-60
2023/08/20 08:34:17;;;;;;;5.22;2.28;;;24.40;99.90;;;;;;5091111;28;20403;-60
2023/08/20 08:36:42;;;;;;;5.30;2.28;;;24.40;99.90;;;;;;5091129;28;20461;-60
2023/08/20 08:39:08;;;;;;;5.28;2.40;;;24.50;99.90;;;;;;5091565;28;20048;-60
2023/08/20 08:41:38;;;;;;;5.82;2.40;;;24.50;99.90;;;;;;5090893;28;20020;-61
2023/08/20 08:44:04;;;;;;;6.03;2.53;;;24.50;99.90;;;;;;5090980;28;20442;-58
2023/08/20 08:46:31;;;;;;;5.57;2.00;;;24.60;99.90;;;;;;5091637;28;20031;-59
2023/08/20 08:48:58;;;;;;;6.47;2.28;;;24.60;99.90;;;;;;5090959;28;20556;-59
2023/08/20 08:51:25;;;;;;;6.25;2.30;;;24.70;99.90;;;;;;5090971;28;20032;-58
2023/08/20 08:53:53;;;;;;;5.15;2.60;;;24.80;99.90;;;;;;5091085;28;20024;-59
2023/08/20 08:56:18;;;;;;;4.38;2.10;;;24.80;99.90;;;;;;5091182;28;20618;-58
2023/08/20 08:58:44;;;;;;;5.40;2.45;;;25.00;99.90;;;;;;5090547;28;20099;-58
2023/08/20 09:01:10;;;;;;;4.63;2.10;;;25.30;99.90;;;;;;5090951;28;20032;-58
2023/08/20 09:03:35;;;;;;;4.80;2.15;;;25.40;99.90;;;;;;5090814;28;20107;-58
2023/08/20 09:06:07;;;;;;;4.53;2.17;;;25.60;99.90;;;;;;5090822;28;20028;-58
2023/08/20 09:08:33;;;;;;;6.90;2.50;;;25.90;99.90;;;;;;5093220;28;20016;-58
2023/08/20 09:11:01;;;;;;;5.38;2.28;;;26.10;99.90;;;;;;5094927;28;20040;-58
2023/08/20 09:13:37;;;;;;;3.88;1.98;;;26.00;99.90;;;;;;5092929;28;20020;-58
2023/08/20 09:16:10;;;;;;;6.28;2.42;;;26.00;99.90;;;;;;5076238;28;20020;-59
2023/08/20 09:18:45;;;;;;;7.10;2.67;;;26.10;99.90;;;;;;5094563;28;20272;-59
2023/08/20 09:21:12;;;;;;;4.28;2.60;;;26.10;99.90;;;;;;5074587;28;20059;-58
2023/08/20 09:23:38;;;;;;;5.80;2.58;;;26.20;99.90;;;;;;5074127;28;20060;-61
2023/08/20 09:26:06;;;;;;;5.75;2.85;;;26.30;99.90;;;;;;5073827;28;20048;-61
2023/08/20 09:28:45;;;;;;;7.15;2.47;;;26.30;99.90;;;;;;5073736;28;20052;-59
2023/08/20 09:31:12;;;;;;;6.57;2.42;;;26.50;99.90;;;;;;5073994;28;20024;-58
2023/08/20 09:33:52;;;;;;;4.35;2.00;;;26.60;99.90;;;;;;5073884;28;20035;-58
2023/08/20 09:36:18;;;;;;;4.65;2.40;;;26.60;99.90;;;;;;5073973;28;20039;-58
2023/08/20 09:38:44;;;;;;;9.82;3.08;;;26.50;99.90;;;;;;5073720;28;20025;-58
2023/08/20 09:41:11;;;;;;;4.85;2.20;;;26.40;99.90;;;;;;5073778;28;20029;-58
2023/08/20 09:43:39;;;;;;;7.18;2.75;;;26.20;99.90;;;;;;5073372;28;20447;-59
2023/08/20 09:46:05;;;;;;;6.45;2.42;;;26.30;99.90;;;;;;5073771;28;20029;-59
2023/08/20 09:48:35;;;;;;;7.38;2.60;;;26.40;99.90;;;;;;5073902;28;20023;-58
2023/08/20 09:51:05;;;;;;;5.05;2.30;;;26.50;99.90;;;;;;5073526;28;20032;-58
2023/08/20 09:53:45;;;;;;;5.50;2.55;;;26.50;99.90;;;;;;5073584;28;20485;-58
2023/08/20 09:56:21;;;;;;;4.97;2.50;;;26.50;99.90;;;;;;5073825;28;20047;-59
2023/08/20 09:58:49;;;;;;;7.35;2.65;;;26.40;99.90;;;;;;5073470;28;20052;-58
2023/08/20 10:01:15;;;;;;;6.47;2.60;;;26.50;99.90;;;;;;5073543;28;20389;-59
2023/08/20 10:03:42;;;;;;;5.35;2.65;;;26.50;99.90;;;;;;5073475;28;20017;-58
2023/08/20 10:06:09;;;;;;;6.68;2.50;;;26.60;99.90;;;;;;5073356;28;20024;-60
2023/08/20 10:08:35;;;;;;;6.38;2.80;;;26.70;99.90;;;;;;5055509;28;20562;-58
2023/08/20 10:11:00;;;;;;;6.10;2.42;;;26.70;99.90;;;;;;5073250;28;20438;-58
2023/08/20 10:13:27;;;;;;;5.78;2.47;;;26.70;99.90;;;;;;5073213;28;20052;-58
2023/08/20 10:15:55;;;;;;;7.80;2.60;;;26.80;99.90;;;;;;5091261;28;20043;-58
2023/08/20 10:18:22;;;;;;;7.38;2.63;;;26.90;99.90;;;;;;5093086;28;20122;-58
2023/08/20 10:20:50;;;;;;;6.13;2.40;;;27.10;99.90;;;;;;5092562;28;20035;-58
2023/08/20 10:23:22;;;;;;;4.13;2.55;;;27.40;99.90;;;;;;5093353;28;20032;-58
2023/08/20 10:25:48;;;;;;;5.22;2.55;;;27.50;99.90;;;;;;5092862;28;20040;-58
2023/08/20 10:28:20;;;;;;;5.47;2.50;;;27.60;99.90;;;;;;5092813;28;20502;-58
2023/08/20 10:31:09;;;;;;;6.05;2.70;;;27.70;99.90;;;;;;5093023;28;20032;-58
2023/08/20 10:33:48;;;;;;;6.00;2.72;;;27.70;99.90;;;;;;5093458;28;20043;-58
2023/08/20 10:36:22;;;;;;;7.72;2.85;;;27.80;99.90;;;;;;5074873;28;20027;-58
2023/08/20 10:38:49;;;;;;;5.53;2.80;;;27.90;99.90;;;;;;5092863;28;20027;-58
2023/08/20 10:41:18;;;;;;;5.65;2.63;;;28.10;99.90;;;;;;5074792;28;20024;-58
2023/08/20 10:43:51;;;;;;;7.00;3.45;;;28.30;99.90;;;;;;5092915;28;20028;-61
2023/08/20 10:46:23;;;;;;;5.88;2.50;;;28.50;99.90;;;;;;5092783;28;20128;-58
2023/08/20 10:48:58;;;;;;;6.45;2.92;;;28.50;99.90;;;;;;5092726;28;20099;-59
2023/08/20 10:51:28;;;;;;;5.22;2.95;;;28.50;99.90;;;;;;5092522;28;20043;-58
2023/08/20 10:54:00;;;;;;;6.68;2.78;;;28.60;99.90;;;;;;5092772;28;20093;-58
2023/08/20 10:56:43;;;;;;;6.60;2.80;;;28.80;99.90;;;;;;5092186;28;20106;-58
2023/08/20 10:59:23;;;;;;;6.43;3.30;;;28.70;99.90;;;;;;5092721;28;20553;-58
2023/08/20 11:01:50;;;;;;;6.50;3.22;;;28.60;99.90;;;;;;5092652;28;20115;-58
2023/08/20 11:04:20;;;;;;;3.53;2.70;;;28.60;99.90;;;;;;5092758;28;20036;-59
2023/08/20 11:06:49;;;;;;;5.00;2.92;;;28.50;99.90;;;;;;5092216;28;20032;-58
2023/08/20 11:09:15;;;;;;;7.60;2.85;;;28.40;99.90;;;;;;5074291;28;20444;-58
2023/08/20 11:11:41;;;;;;;5.28;2.90;;;28.40;99.90;;;;;;5092263;28;20089;-59
2023/08/20 11:14:13;;;;;;;5.53;2.90;;;28.40;99.90;;;;;;5092193;28;20039;-59
2023/08/20 11:16:40;;;;;;;5.18;2.70;;;28.40;99.90;;;;;;5092519;28;20023;-58
2023/08/20 11:19:09;;;;;;;5.50;2.90;;;28.60;99.90;;;;;;5092118;28;20034;-59
2023/08/20 11:21:37;;;;;;;4.68;2.97;;;28.70;99.90;;;;;;5092058;28;20055;-58
2023/08/20 11:24:03;;;;;;;7.05;3.00;;;28.60;99.90;;;;;;5092043;28;20032;-59
2023/08/20 11:26:29;;;;;;;6.35;3.20;;;28.60;99.90;;;;;;5091913;28;20386;-59
2023/08/20 11:28:55;;;;;;;4.45;2.60;;;28.70;99.90;;;;;;5092059;28;20477;-58
2023/08/20 11:31:21;;;;;;;6.43;3.38;;;28.70;99.90;;;;;;5091746;28;20028;-59
2023/08/20 11:33:47;;;;;;;6.20;2.67;;;28.70;99.90;;;;;;5092082;28;20035;-59
2023/08/20 11:36:16;;;;;;;4.82;2.92;;;28.90;99.90;;;;;;5091934;28;20095;-59
2023/08/20 11:38:42;;;;;;;3.58;2.60;;;29.10;99.90;;;;;;5091498;28;20504;-59
2023/08/20 11:41:08;;;;;;;5.90;2.75;;;29.10;99.90;;;;;;5091749;28;20032;-59
2023/08/20 11:43:34;;;;;;;6.03;2.70;;;29.30;99.90;;;;;;5092088;28;20020;-58
2023/08/20 11:46:00;;;;;;;5.85;3.10;;;29.50;99.90;;;;;;5091889;28;20028;-59
2023/08/20 11:48:25;;;;;;;4.88;2.80;;;29.50;99.90;;;;;;5073161;28;20046;-59
2023/08/20 11:50:51;;;;;;;5.85;2.90;;;29.80;99.90;;;;;;5073884;28;20032;-58
2023/08/20 11:53:24;;;;;;;6.43;2.83;;;29.80;99.90;;;;;;5091325;28;20036;-58
2023/08/20 11:55:50;;;;;;;5.78;2.85;;;29.60;99.90;;;;;;5091768;28;20032;-58
2023/08/20 11:58:19;;;;;;;6.53;3.05;;;29.50;99.90;;;;;;5091542;28;20028;-58
2023/08/20 12:00:50;;;;;;;9.65;3.55;;;29.50;99.90;;;;;;5091832;28;20028;-58
2023/08/20 12:03:17;;;;;;;11.00;3.10;;;29.40;99.90;;;;;;5091648;28;20108;-59
2023/08/20 12:05:43;;;;;;;8.38;3.08;;;29.40;99.90;;;;;;5091386;28;20036;-59
2023/08/20 12:08:16;;;;;;;7.53;3.40;;;29.40;99.90;;;;;;5091180;28;20437;-59
2023/08/20 12:10:43;;;;;;;10.05;3.33;;;29.40;99.90;;;;;;5091243;28;20032;-59
2023/08/20 12:13:08;;;;;;;9.45;3.38;;;29.50;99.90;;;;;;5091892;28;20052;-59
2023/08/20 12:15:34;;;;;;;10.52;3.50;;;29.60;99.90;;;;;;5091318;28;20055;-58
2023/08/20 12:18:04;;;;;;;8.93;3.47;;;29.50;99.90;;;;;;5091210;28;20028;-58
2023/08/20 12:20:32;;;;;;;9.25;3.33;;;29.60;99.90;;;;;;5091328;28;20012;-59
2023/08/20 12:23:05;;;;;;;12.48;3.22;;;29.70;99.90;;;;;;5090816;28;20032;-59
2023/08/20 12:25:34;;;;;;;6.18;3.00;;;29.70;99.90;;;;;;5091114;28;20081;-59
2023/08/20 12:28:01;;;;;;;9.55;3.22;;;29.80;99.90;;;;;;5091342;28;20040;-60
2023/08/20 12:30:27;;;;;;;10.25;3.47;;;29.70;99.90;;;;;;5091488;28;20127;-59
2023/08/20 12:32:52;;;;;;;11.00;3.50;;;29.50;99.90;;;;;;5091236;28;20111;-59
2023/08/20 12:35:18;;;;;;;9.73;3.17;;;29.50;99.90;;;;;;5091058;28;20041;-59
2023/08/20 12:37:44;;;;;;;9.15;3.42;;;29.50;99.90;;;;;;5090931;28;20024;-59
2023/08/20 12:40:12;;;;;;;10.50;3.22;;;29.30;99.90;;;;;;5091050;28;20021;-59
2023/08/20 12:42:38;;;;;;;9.05;3.28;;;29.30;99.90;;;;;;5092047;28;20030;-59
2023/08/20 12:45:07;;;;;;;7.07;3.20;;;29.30;99.90;;;;;;5095119;28;20495;-59